Baltic Betina — 9HDW8 — position and weather

sailwx.info

Track history (hours):
 
Tides and Currents Weather Stations Pressure Air Temp Water Temp Dewpoint Dewpoint Depression Visibility Wind Speed Wind Dir Waves Ship Positions

Baltic Betina

Last reported at 2014-Sep-19 15:19 UTC. Time now 2014-Sep-19 17:57 UTC.
Position N 58°03' E 006°30'.

Length 90 m; draft 4 m.

Type: Ship. MMSI: 215869000.

Date/timePositionNaut miles runAvg speedWind from/ knotsBaromVisibWave heightAir tempDewpointWater temp
2014-Sep-19 15:19N 58°03' E 006°30'811.0
2014-Sep-19 14:33N 58°08' E 006°18'1010.5
2014-Sep-19 13:33N 58°16' E 006°05'1010.3
2014-Sep-19 12:33N 58°23' E 005°51'1110.9
2014-Sep-19 11:33N 58°32' E 005°38'1211.5
2014-Sep-19 10:33N 58°42' E 005°28'1110.8
2014-Sep-19 09:33N 58°53' E 005°31'1211.7
2014-Sep-19 08:33N 59°05' E 005°31'1010.0
2014-Sep-19 07:33N 59°13' E 005°20'6 5.0
2014-Sep-19 06:22N 59°19' E 005°19'0 0.0
2014-Sep-19 05:29N 59°19' E 005°19'7 7.8
2014-Sep-19 04:33N 59°25' E 005°14'1 0.1
2014-Sep-18 09:32N 59°25' E 005°15'1212.3
2014-Sep-18 08:33N 59°13' E 005°21'1111.3
2014-Sep-18 07:33N 59°04' E 005°34'10 9.8
2014-Sep-18 06:34N 58°56' E 005°46'5 4.8
2014-Sep-18 05:31N 58°51' E 005°45'0 0.0
2014-Sep-18 04:31N 58°51' E 005°45'3 3.1
2014-Sep-18 03:34N 58°54' E 005°46'8 7.6
2014-Sep-18 02:33N 59°02' E 005°43'7 7.0
2014-Sep-18 01:33N 58°57' E 005°33'1010.2
2014-Sep-18 00:33N 58°47' E 005°26'1010.1
2014-Sep-17 23:33N 58°37' E 005°30'1110.8
2014-Sep-17 22:33N 58°29' E 005°43'1110.6
2014-Sep-17 21:33N 58°22' E 005°58'1111.0
2014-Sep-17 20:33N 58°14' E 006°13'1211.7
2014-Sep-17 19:33N 58°07' E 006°30'6311.5
2014-Sep-17 14:07N 58°08' E 008°28'1013.4
2014-Sep-17 13:23N 58°14' E 008°43'1314.0
2014-Sep-17 12:29N 58°23' E 009°01'3213.2
2014-Sep-17 10:05N 58°44' E 009°46'812.5
2014-Sep-17 09:26N 58°49' E 009°58'1112.0
2014-Sep-17 08:34N 58°56' E 010°13'1211.9
2014-Sep-17 07:33N 59°07' E 010°23'8 7.9
2014-Sep-17 06:33N 59°15' E 010°23'1 1.0
2014-Sep-17 05:33N 59°16' E 010°24'3 2.6
2014-Sep-17 04:33N 59°15' E 010°28'1111.4
2014-Sep-17 03:33N 59°06' E 010°42'8 8.2
2014-Sep-17 02:33N 59°04' E 010°58'7 6.7
2014-Sep-17 01:31N 59°11' E 010°57'0 0.0
2014-Sep-17 00:31N 59°11' E 010°57'0 0.0
2014-Sep-16 23:31N 59°11' E 010°57'0 0.0
2014-Sep-16 22:31N 59°11' E 010°57'0 0.0
2014-Sep-16 21:31N 59°11' E 010°57'0 0.0
2014-Sep-16 20:31N 59°11' E 010°57'0 0.0
2014-Sep-16 19:31N 59°11' E 010°57'0 0.0
2014-Sep-16 18:31N 59°11' E 010°57'0 0.2
2014-Sep-16 17:33N 59°11' E 010°57'1111.0
2014-Sep-16 16:33N 59°00' E 010°59'8 8.3
2014-Sep-16 15:33N 59°05' E 011°12'4 1.0
2014-Sep-16 11:12N 59°07' E 011°20'3 3.9
2014-Sep-16 10:26N 59°06' E 011°15'910.6
2014-Sep-16 09:33N 58°58' E 011°04'3911.6
2014-Sep-16 06:09N 58°18' E 011°05'712.1
2014-Sep-16 05:32N 58°11' E 011°08'1212.0
2014-Sep-16 04:33N 57°60' E 011°15'1212.4
2014-Sep-16 03:33N 57°48' E 011°22'1212.5
2014-Sep-16 02:33N 57°37' E 011°31'1312.5
2014-Sep-16 01:33N 57°26' E 011°42'1312.5
2014-Sep-16 00:32N 57°14' E 011°53'1212.2
2014-Sep-15 23:33N 57°04' E 012°02'1211.9
2014-Sep-15 22:33N 56°52' E 012°09'1211.7
2014-Sep-15 21:32N 56°41' E 012°15'1212.2
2014-Sep-15 20:33N 56°29' E 012°21'1312.7
2014-Sep-15 19:33N 56°17' E 012°26'1413.8
2014-Sep-15 18:33N 56°05' E 012°37'1312.6
2014-Sep-15 17:33N 55°53' E 012°44'1212.0
2014-Sep-15 16:33N 55°41' E 012°41'1211.9
2014-Sep-15 15:33N 55°29' E 012°42'1110.8
2014-Sep-15 14:33N 55°18' E 012°43'1212.1
2014-Sep-15 13:33N 55°15' E 013°04'1212.3
2014-Sep-15 12:33N 55°15' E 013°25'1212.3
2014-Sep-15 11:33N 55°15' E 013°47'1212.3
2014-Sep-15 10:33N 55°14' E 014°08'1111.4
2014-Sep-15 09:33N 55°20' E 014°26'1111.2
2014-Sep-15 08:33N 55°25' E 014°43'1212.0
2014-Sep-15 07:33N 55°26' E 015°04'1211.8
2014-Sep-15 06:33N 55°27' E 015°25'12011.9
2014-Sep-14 20:26N 55°37' E 018°57'2611.8
2014-Sep-14 18:14N 55°40' E 019°43'49 7.0
2014-Sep-14 11:11N 55°39' E 021°10'0 0.0
2014-Sep-14 10:33N 55°39' E 021°10'0 0.0
2014-Sep-14 09:14N 55°39' E 021°10'0 0.0
2014-Sep-14 08:33N 55°39' E 021°09'0 0.0
2014-Sep-14 07:33N 55°39' E 021°09'0 0.0
2014-Sep-14 06:33N 55°39' E 021°10'0 0.0
2014-Sep-14 05:33N 55°39' E 021°10'3 3.4
2014-Sep-14 04:33N 55°42' E 021°07'10 9.5
2014-Sep-14 03:33N 55°49' E 020°56'1211.7
2014-Sep-14 02:34N 56°01' E 020°51'1211.8
2014-Sep-14 01:33N 56°12' E 020°46'175 4.9
2014-Sep-12 14:08N 59°07' E 021°24'1012.0
2014-Sep-12 13:15N 59°17' E 021°23'912.0
2014-Sep-12 12:32N 59°26' E 021°21'1212.1
2014-Sep-12 11:34N 59°37' E 021°20'1211.9
2014-Sep-12 10:34N 59°49' E 021°21'1611.0
2014-Sep-12 09:07N 60°01' E 021°41'189 3.8
2014-Sep-10 07:26N 57°33' E 017°56'1211.7
2014-Sep-10 06:24N 57°23' E 017°45'1012.0
2014-Sep-10 05:33N 57°13' E 017°38'2711.9
2014-Sep-10 03:19N 56°48' E 017°21'10911.8
2014-Sep-09 18:03N 55°13' E 015°45'612.0
2014-Sep-09 17:33N 55°08' E 015°39'  
Track history (hours):
 
Tides and Currents Weather Stations Pressure Air Temp Water Temp Dewpoint Dewpoint Depression Visibility Wind Speed Wind Dir Waves Ship Positions

Baltic Betina

Last reported at 2014-Sep-19 15:19 UTC. Time now 2014-Sep-19 17:57 UTC.
Position N 58°03' E 006°30'.

Length 90 m; draft 4 m.

Type: Ship. MMSI: 215869000.

Date/timePositionNaut miles runAvg speedWind from/ knotsBaromVisibWave heightAir tempDewpointWater temp
2014-Sep-19 15:19N 58°03' E 006°30'811.0
2014-Sep-19 14:33N 58°08' E 006°18'1010.5
2014-Sep-19 13:33N 58°16' E 006°05'1010.3
2014-Sep-19 12:33N 58°23' E 005°51'1110.9
2014-Sep-19 11:33N 58°32' E 005°38'1211.5
2014-Sep-19 10:33N 58°42' E 005°28'1110.8
2014-Sep-19 09:33N 58°53' E 005°31'1211.7
2014-Sep-19 08:33N 59°05' E 005°31'1010.0
2014-Sep-19 07:33N 59°13' E 005°20'6 5.0
2014-Sep-19 06:22N 59°19' E 005°19'0 0.0
2014-Sep-19 05:29N 59°19' E 005°19'7 7.8
2014-Sep-19 04:33N 59°25' E 005°14'1 0.1
2014-Sep-18 09:32N 59°25' E 005°15'1212.3
2014-Sep-18 08:33N 59°13' E 005°21'1111.3
2014-Sep-18 07:33N 59°04' E 005°34'10 9.8
2014-Sep-18 06:34N 58°56' E 005°46'5 4.8
2014-Sep-18 05:31N 58°51' E 005°45'0 0.0
2014-Sep-18 04:31N 58°51' E 005°45'3 3.1
2014-Sep-18 03:34N 58°54' E 005°46'8 7.6
2014-Sep-18 02:33N 59°02' E 005°43'7 7.0
2014-Sep-18 01:33N 58°57' E 005°33'1010.2
2014-Sep-18 00:33N 58°47' E 005°26'1010.1
2014-Sep-17 23:33N 58°37' E 005°30'1110.8
2014-Sep-17 22:33N 58°29' E 005°43'1110.6
2014-Sep-17 21:33N 58°22' E 005°58'1111.0
2014-Sep-17 20:33N 58°14' E 006°13'1211.7
2014-Sep-17 19:33N 58°07' E 006°30'6311.5
2014-Sep-17 14:07N 58°08' E 008°28'1013.4
2014-Sep-17 13:23N 58°14' E 008°43'1314.0
2014-Sep-17 12:29N 58°23' E 009°01'3213.2
2014-Sep-17 10:05N 58°44' E 009°46'812.5
2014-Sep-17 09:26N 58°49' E 009°58'1112.0
2014-Sep-17 08:34N 58°56' E 010°13'1211.9
2014-Sep-17 07:33N 59°07' E 010°23'8 7.9
2014-Sep-17 06:33N 59°15' E 010°23'1 1.0
2014-Sep-17 05:33N 59°16' E 010°24'3 2.6
2014-Sep-17 04:33N 59°15' E 010°28'1111.4
2014-Sep-17 03:33N 59°06' E 010°42'8 8.2
2014-Sep-17 02:33N 59°04' E 010°58'7 6.7
2014-Sep-17 01:31N 59°11' E 010°57'0 0.0
2014-Sep-17 00:31N 59°11' E 010°57'0 0.0
2014-Sep-16 23:31N 59°11' E 010°57'0 0.0
2014-Sep-16 22:31N 59°11' E 010°57'0 0.0
2014-Sep-16 21:31N 59°11' E 010°57'0 0.0
2014-Sep-16 20:31N 59°11' E 010°57'0 0.0
2014-Sep-16 19:31N 59°11' E 010°57'0 0.0
2014-Sep-16 18:31N 59°11' E 010°57'0 0.2
2014-Sep-16 17:33N 59°11' E 010°57'1111.0
2014-Sep-16 16:33N 59°00' E 010°59'8 8.3
2014-Sep-16 15:33N 59°05' E 011°12'4 1.0
2014-Sep-16 11:12N 59°07' E 011°20'3 3.9
2014-Sep-16 10:26N 59°06' E 011°15'910.6
2014-Sep-16 09:33N 58°58' E 011°04'3911.6
2014-Sep-16 06:09N 58°18' E 011°05'712.1
2014-Sep-16 05:32N 58°11' E 011°08'1212.0
2014-Sep-16 04:33N 57°60' E 011°15'1212.4
2014-Sep-16 03:33N 57°48' E 011°22'1212.5
2014-Sep-16 02:33N 57°37' E 011°31'1312.5
2014-Sep-16 01:33N 57°26' E 011°42'1312.5
2014-Sep-16 00:32N 57°14' E 011°53'1212.2
2014-Sep-15 23:33N 57°04' E 012°02'1211.9
2014-Sep-15 22:33N 56°52' E 012°09'1211.7
2014-Sep-15 21:32N 56°41' E 012°15'1212.2
2014-Sep-15 20:33N 56°29' E 012°21'1312.7
2014-Sep-15 19:33N 56°17' E 012°26'1413.8
2014-Sep-15 18:33N 56°05' E 012°37'1312.6
2014-Sep-15 17:33N 55°53' E 012°44'1212.0
2014-Sep-15 16:33N 55°41' E 012°41'1211.9
2014-Sep-15 15:33N 55°29' E 012°42'1110.8
2014-Sep-15 14:33N 55°18' E 012°43'1212.1
2014-Sep-15 13:33N 55°15' E 013°04'1212.3
2014-Sep-15 12:33N 55°15' E 013°25'1212.3
2014-Sep-15 11:33N 55°15' E 013°47'1212.3
2014-Sep-15 10:33N 55°14' E 014°08'1111.4
2014-Sep-15 09:33N 55°20' E 014°26'1111.2
2014-Sep-15 08:33N 55°25' E 014°43'1212.0
2014-Sep-15 07:33N 55°26' E 015°04'1211.8
2014-Sep-15 06:33N 55°27' E 015°25'12011.9
2014-Sep-14 20:26N 55°37' E 018°57'2611.8
2014-Sep-14 18:14N 55°40' E 019°43'49 7.0
2014-Sep-14 11:11N 55°39' E 021°10'0 0.0
2014-Sep-14 10:33N 55°39' E 021°10'0 0.0
2014-Sep-14 09:14N 55°39' E 021°10'0 0.0
2014-Sep-14 08:33N 55°39' E 021°09'0 0.0
2014-Sep-14 07:33N 55°39' E 021°09'0 0.0
2014-Sep-14 06:33N 55°39' E 021°10'0 0.0
2014-Sep-14 05:33N 55°39' E 021°10'3 3.4
2014-Sep-14 04:33N 55°42' E 021°07'10 9.5
2014-Sep-14 03:33N 55°49' E 020°56'1211.7
2014-Sep-14 02:34N 56°01' E 020°51'1211.8
2014-Sep-14 01:33N 56°12' E 020°46'175 4.9
2014-Sep-12 14:08N 59°07' E 021°24'1012.0
2014-Sep-12 13:15N 59°17' E 021°23'912.0
2014-Sep-12 12:32N 59°26' E 021°21'1212.1
2014-Sep-12 11:34N 59°37' E 021°20'1211.9
2014-Sep-12 10:34N 59°49' E 021°21'1611.0
2014-Sep-12 09:07N 60°01' E 021°41'189 3.8
2014-Sep-10 07:26N 57°33' E 017°56'1211.7
2014-Sep-10 06:24N 57°23' E 017°45'1012.0
2014-Sep-10 05:33N 57°13' E 017°38'2711.9
2014-Sep-10 03:19N 56°48' E 017°21'10911.8
2014-Sep-09 18:03N 55°13' E 015°45'612.0
2014-Sep-09 17:33N 55°08' E 015°39'  

Dump ship's entire track history